sensor_id;sensor_type;location;lat;lon;timestamp;P1;durP1;ratioP1;P2;durP2;ratioP2
36253;SDS011;22291;52.250;21.228;2023-12-20T00:00:33;22.32;;;16.45;;
36253;SDS011;22291;52.250;21.228;2023-12-20T00:03:03;28.83;;;18.00;;
36253;SDS011;22291;52.250;21.228;2023-12-20T00:05:31;26.00;;;17.27;;
36253;SDS011;22291;52.250;21.228;2023-12-20T00:07:58;24.95;;;16.85;;
36253;SDS011;22291;52.250;21.228;2023-12-20T00:10:25;24.43;;;16.10;;
36253;SDS011;22291;52.250;21.228;2023-12-20T00:12:52;23.77;;;16.32;;
36253;SDS011;22291;52.250;21.228;2023-12-20T00:15:19;26.25;;;17.12;;
36253;SDS011;22291;52.250;21.228;2023-12-20T00:17:46;23.27;;;15.70;;
36253;SDS011;22291;52.250;21.228;2023-12-20T00:20:13;24.57;;;16.70;;
36253;SDS011;22291;52.250;21.228;2023-12-20T00:22:40;22.15;;;15.43;;
36253;SDS011;22291;52.250;21.228;2023-12-20T00:25:07;22.07;;;14.53;;
36253;SDS011;22291;52.250;21.228;2023-12-20T00:27:34;22.73;;;15.25;;
36253;SDS011;22291;52.250;21.228;2023-12-20T00:30:01;22.77;;;15.93;;
36253;SDS011;22291;52.250;21.228;2023-12-20T00:32:28;21.20;;;15.58;;
36253;SDS011;22291;52.250;21.228;2023-12-20T00:34:56;23.35;;;14.85;;
36253;SDS011;22291;52.250;21.228;2023-12-20T00:37:23;21.15;;;14.73;;
36253;SDS011;22291;52.250;21.228;2023-12-20T00:39:49;21.95;;;14.53;;
36253;SDS011;22291;52.250;21.228;2023-12-20T00:42:16;22.10;;;14.68;;
36253;SDS011;22291;52.250;21.228;2023-12-20T00:44:43;21.87;;;15.10;;
36253;SDS011;22291;52.250;21.228;2023-12-20T00:47:10;20.23;;;15.30;;
36253;SDS011;22291;52.250;21.228;2023-12-20T00:49:37;20.70;;;15.32;;
36253;SDS011;22291;52.250;21.228;2023-12-20T00:52:04;20.68;;;14.75;;
36253;SDS011;22291;52.250;21.228;2023-12-20T00:54:37;18.00;;;13.60;;
36253;SDS011;22291;52.250;21.228;2023-12-20T00:57:04;22.45;;;14.35;;
36253;SDS011;22291;52.250;21.228;2023-12-20T00:59:31;19.37;;;13.75;;
36253;SDS011;22291;52.250;21.228;2023-12-20T01:01:57;21.90;;;15.10;;
36253;SDS011;22291;52.250;21.228;2023-12-20T01:04:24;20.45;;;14.38;;
36253;SDS011;22291;52.250;21.228;2023-12-20T01:06:51;18.98;;;13.18;;
36253;SDS011;22291;52.250;21.228;2023-12-20T01:09:19;22.30;;;13.75;;
36253;SDS011;22291;52.250;21.228;2023-12-20T01:11:48;20.00;;;13.83;;
36253;SDS011;22291;52.250;21.228;2023-12-20T01:14:15;21.27;;;13.93;;
36253;SDS011;22291;52.250;21.228;2023-12-20T01:16:42;20.20;;;13.60;;
36253;SDS011;22291;52.250;21.228;2023-12-20T01:19:09;18.95;;;12.37;;
36253;SDS011;22291;52.250;21.228;2023-12-20T01:21:36;17.52;;;13.03;;
36253;SDS011;22291;52.250;21.228;2023-12-20T01:24:03;17.92;;;12.28;;
36253;SDS011;22291;52.250;21.228;2023-12-20T01:26:30;16.90;;;12.28;;
36253;SDS011;22291;52.250;21.228;2023-12-20T01:28:57;18.75;;;12.65;;
36253;SDS011;22291;52.250;21.228;2023-12-20T01:31:24;16.45;;;12.37;;
36253;SDS011;22291;52.250;21.228;2023-12-20T01:33:53;18.32;;;12.20;;
36253;SDS011;22291;52.250;21.228;2023-12-20T01:36:20;17.52;;;12.25;;
36253;SDS011;22291;52.250;21.228;2023-12-20T01:38:47;17.90;;;12.47;;
36253;SDS011;22291;52.250;21.228;2023-12-20T01:41:14;16.73;;;12.15;;
36253;SDS011;22291;52.250;21.228;2023-12-20T01:43:41;17.65;;;11.80;;
36253;SDS011;22291;52.250;21.228;2023-12-20T01:46:09;17.40;;;12.20;;
36253;SDS011;22291;52.250;21.228;2023-12-20T01:48:38;17.32;;;11.95;;
36253;SDS011;22291;52.250;21.228;2023-12-20T01:51:05;17.40;;;12.43;;
36253;SDS011;22291;52.250;21.228;2023-12-20T01:53:32;17.23;;;11.53;;
36253;SDS011;22291;52.250;21.228;2023-12-20T01:55:59;16.52;;;11.68;;
36253;SDS011;22291;52.250;21.228;2023-12-20T01:58:28;16.87;;;11.65;;
36253;SDS011;22291;52.250;21.228;2023-12-20T02:00:54;14.43;;;11.03;;
36253;SDS011;22291;52.250;21.228;2023-12-20T02:03:23;15.78;;;11.68;;
36253;SDS011;22291;52.250;21.228;2023-12-20T02:05:50;15.78;;;11.18;;
36253;SDS011;22291;52.250;21.228;2023-12-20T02:08:17;19.17;;;13.20;;
36253;SDS011;22291;52.250;21.228;2023-12-20T02:10:45;18.32;;;12.15;;
36253;SDS011;22291;52.250;21.228;2023-12-20T02:13:12;17.82;;;13.78;;
36253;SDS011;22291;52.250;21.228;2023-12-20T02:15:39;16.37;;;13.45;;
36253;SDS011;22291;52.250;21.228;2023-12-20T02:18:08;20.27;;;14.10;;
36253;SDS011;22291;52.250;21.228;2023-12-20T02:20:35;17.45;;;14.03;;
36253;SDS011;22291;52.250;21.228;2023-12-20T02:23:02;19.82;;;13.98;;
36253;SDS011;22291;52.250;21.228;2023-12-20T02:25:29;18.85;;;13.80;;
36253;SDS011;22291;52.250;21.228;2023-12-20T02:27:57;20.77;;;14.53;;
36253;SDS011;22291;52.250;21.228;2023-12-20T02:30:24;16.42;;;12.68;;
36253;SDS011;22291;52.250;21.228;2023-12-20T02:32:51;16.52;;;12.40;;
36253;SDS011;22291;52.250;21.228;2023-12-20T02:35:19;14.87;;;11.80;;
36253;SDS011;22291;52.250;21.228;2023-12-20T02:37:46;16.35;;;12.45;;
36253;SDS011;22291;52.250;21.228;2023-12-20T02:40:13;15.53;;;12.05;;
36253;SDS011;22291;52.250;21.228;2023-12-20T02:42:40;13.30;;;10.48;;
36253;SDS011;22291;52.250;21.228;2023-12-20T02:45:07;15.25;;;11.15;;
36253;SDS011;22291;52.250;21.228;2023-12-20T02:47:35;14.18;;;10.18;;
36253;SDS011;22291;52.250;21.228;2023-12-20T02:50:02;13.65;;;9.68;;
36253;SDS011;22291;52.250;21.228;2023-12-20T02:52:29;11.88;;;8.65;;
36253;SDS011;22291;52.250;21.228;2023-12-20T02:54:56;13.65;;;8.70;;
36253;SDS011;22291;52.250;21.228;2023-12-20T02:57:24;9.33;;;7.62;;
36253;SDS011;22291;52.250;21.228;2023-12-20T02:59:50;10.43;;;8.00;;
36253;SDS011;22291;52.250;21.228;2023-12-20T03:02:17;9.55;;;7.33;;
36253;SDS011;22291;52.250;21.228;2023-12-20T03:04:44;10.03;;;7.78;;
36253;SDS011;22291;52.250;21.228;2023-12-20T03:07:11;11.78;;;7.67;;
36253;SDS011;22291;52.250;21.228;2023-12-20T03:09:37;11.73;;;7.37;;
36253;SDS011;22291;52.250;21.228;2023-12-20T03:12:05;9.18;;;6.62;;
36253;SDS011;22291;52.250;21.228;2023-12-20T03:14:31;9.08;;;6.50;;
36253;SDS011;22291;52.250;21.228;2023-12-20T03:16:58;9.05;;;6.28;;
36253;SDS011;22291;52.250;21.228;2023-12-20T03:19:25;9.95;;;6.00;;
36253;SDS011;22291;52.250;21.228;2023-12-20T03:21:52;8.88;;;6.17;;
36253;SDS011;22291;52.250;21.228;2023-12-20T03:24:19;7.25;;;5.95;;
36253;SDS011;22291;52.250;21.228;2023-12-20T03:26:46;9.30;;;6.30;;
36253;SDS011;22291;52.250;21.228;2023-12-20T03:29:13;7.78;;;6.03;;
36253;SDS011;22291;52.250;21.228;2023-12-20T03:31:40;7.50;;;5.85;;
36253;SDS011;22291;52.250;21.228;2023-12-20T03:34:07;7.53;;;6.10;;
36253;SDS011;22291;52.250;21.228;2023-12-20T03:36:34;7.58;;;5.97;;
36253;SDS011;22291;52.250;21.228;2023-12-20T03:39:00;8.00;;;5.72;;
36253;SDS011;22291;52.250;21.228;2023-12-20T03:41:27;7.42;;;5.78;;
36253;SDS011;22291;52.250;21.228;2023-12-20T03:43:54;6.87;;;5.97;;
36253;SDS011;22291;52.250;21.228;2023-12-20T03:46:21;8.20;;;6.25;;
36253;SDS011;22291;52.250;21.228;2023-12-20T03:48:48;8.23;;;6.15;;
36253;SDS011;22291;52.250;21.228;2023-12-20T03:51:15;9.13;;;6.10;;
36253;SDS011;22291;52.250;21.228;2023-12-20T03:53:42;10.45;;;6.45;;
36253;SDS011;22291;52.250;21.228;2023-12-20T03:56:08;8.25;;;6.47;;
36253;SDS011;22291;52.250;21.228;2023-12-20T03:58:35;10.35;;;6.45;;
36253;SDS011;22291;52.250;21.228;2023-12-20T04:01:03;8.88;;;6.80;;
36253;SDS011;22291;52.250;21.228;2023-12-20T04:03:29;11.45;;;7.65;;
36253;SDS011;22291;52.250;21.228;2023-12-20T04:05:56;8.85;;;7.62;;
36253;SDS011;22291;52.250;21.228;2023-12-20T04:08:23;8.18;;;6.90;;
36253;SDS011;22291;52.250;21.228;2023-12-20T04:10:50;9.93;;;7.78;;
36253;SDS011;22291;52.250;21.228;2023-12-20T04:13:17;9.95;;;7.08;;
36253;SDS011;22291;52.250;21.228;2023-12-20T04:15:44;9.98;;;7.08;;
36253;SDS011;22291;52.250;21.228;2023-12-20T04:18:11;9.60;;;7.40;;
36253;SDS011;22291;52.250;21.228;2023-12-20T04:20:38;9.13;;;7.50;;
36253;SDS011;22291;52.250;21.228;2023-12-20T04:23:06;10.43;;;7.30;;
36253;SDS011;22291;52.250;21.228;2023-12-20T04:25:33;9.90;;;7.10;;
36253;SDS011;22291;52.250;21.228;2023-12-20T04:28:00;13.30;;;7.42;;
36253;SDS011;22291;52.250;21.228;2023-12-20T04:30:27;9.20;;;7.58;;
36253;SDS011;22291;52.250;21.228;2023-12-20T04:32:53;8.55;;;7.35;;
36253;SDS011;22291;52.250;21.228;2023-12-20T04:35:20;8.38;;;6.90;;
36253;SDS011;22291;52.250;21.228;2023-12-20T04:37:47;9.78;;;7.55;;
36253;SDS011;22291;52.250;21.228;2023-12-20T04:40:15;8.68;;;7.25;;
36253;SDS011;22291;52.250;21.228;2023-12-20T04:42:43;9.08;;;7.42;;
36253;SDS011;22291;52.250;21.228;2023-12-20T04:45:09;9.33;;;7.42;;
36253;SDS011;22291;52.250;21.228;2023-12-20T04:47:38;10.05;;;7.65;;
36253;SDS011;22291;52.250;21.228;2023-12-20T04:50:05;8.98;;;7.33;;
36253;SDS011;22291;52.250;21.228;2023-12-20T04:52:33;10.50;;;7.87;;
36253;SDS011;22291;52.250;21.228;2023-12-20T04:55:00;9.35;;;7.40;;
36253;SDS011;22291;52.250;21.228;2023-12-20T04:57:28;8.38;;;7.17;;
36253;SDS011;22291;52.250;21.228;2023-12-20T04:59:55;10.00;;;8.00;;
36253;SDS011;22291;52.250;21.228;2023-12-20T05:02:22;10.58;;;8.43;;
36253;SDS011;22291;52.250;21.228;2023-12-20T05:04:49;11.20;;;8.00;;
36253;SDS011;22291;52.250;21.228;2023-12-20T05:07:17;12.47;;;8.93;;
36253;SDS011;22291;52.250;21.228;2023-12-20T05:09:44;10.63;;;8.20;;
36253;SDS011;22291;52.250;21.228;2023-12-20T05:12:11;11.48;;;8.25;;
36253;SDS011;22291;52.250;21.228;2023-12-20T05:14:38;13.43;;;8.65;;
36253;SDS011;22291;52.250;21.228;2023-12-20T05:17:06;13.22;;;9.38;;
36253;SDS011;22291;52.250;21.228;2023-12-20T05:19:33;11.22;;;7.85;;
36253;SDS011;22291;52.250;21.228;2023-12-20T05:22:01;10.88;;;8.10;;
36253;SDS011;22291;52.250;21.228;2023-12-20T05:24:29;11.28;;;8.20;;
36253;SDS011;22291;52.250;21.228;2023-12-20T05:26:55;12.35;;;8.93;;
36253;SDS011;22291;52.250;21.228;2023-12-20T05:29:22;11.03;;;8.58;;
36253;SDS011;22291;52.250;21.228;2023-12-20T05:32:11;11.73;;;9.25;;
36253;SDS011;22291;52.250;21.228;2023-12-20T05:34:38;11.93;;;8.48;;
36253;SDS011;22291;52.250;21.228;2023-12-20T05:37:04;10.98;;;8.38;;
36253;SDS011;22291;52.250;21.228;2023-12-20T05:39:32;12.10;;;8.30;;
36253;SDS011;22291;52.250;21.228;2023-12-20T05:41:59;11.05;;;8.90;;
36253;SDS011;22291;52.250;21.228;2023-12-20T05:44:26;10.93;;;8.78;;
36253;SDS011;22291;52.250;21.228;2023-12-20T05:46:53;12.60;;;9.45;;
36253;SDS011;22291;52.250;21.228;2023-12-20T05:49:20;14.18;;;9.40;;
36253;SDS011;22291;52.250;21.228;2023-12-20T05:51:47;12.53;;;9.98;;
36253;SDS011;22291;52.250;21.228;2023-12-20T05:54:14;13.30;;;10.18;;
36253;SDS011;22291;52.250;21.228;2023-12-20T05:56:41;15.20;;;9.88;;
36253;SDS011;22291;52.250;21.228;2023-12-20T05:59:08;14.65;;;10.80;;
36253;SDS011;22291;52.250;21.228;2023-12-20T06:01:35;13.13;;;9.93;;
36253;SDS011;22291;52.250;21.228;2023-12-20T06:04:03;13.32;;;10.25;;
36253;SDS011;22291;52.250;21.228;2023-12-20T06:06:30;14.30;;;10.58;;
36253;SDS011;22291;52.250;21.228;2023-12-20T06:08:57;15.50;;;10.35;;
36253;SDS011;22291;52.250;21.228;2023-12-20T06:11:24;16.20;;;10.88;;
36253;SDS011;22291;52.250;21.228;2023-12-20T06:13:53;14.95;;;10.63;;
36253;SDS011;22291;52.250;21.228;2023-12-20T06:16:20;14.35;;;10.25;;
36253;SDS011;22291;52.250;21.228;2023-12-20T06:18:47;14.25;;;10.85;;
36253;SDS011;22291;52.250;21.228;2023-12-20T06:21:14;16.73;;;11.88;;
36253;SDS011;22291;52.250;21.228;2023-12-20T06:23:41;12.65;;;9.73;;
36253;SDS011;22291;52.250;21.228;2023-12-20T06:26:08;14.40;;;11.10;;
36253;SDS011;22291;52.250;21.228;2023-12-20T06:28:35;14.65;;;10.55;;
36253;SDS011;22291;52.250;21.228;2023-12-20T06:31:03;14.95;;;11.30;;
36253;SDS011;22291;52.250;21.228;2023-12-20T06:33:29;14.93;;;10.65;;
36253;SDS011;22291;52.250;21.228;2023-12-20T06:35:57;14.83;;;11.15;;
36253;SDS011;22291;52.250;21.228;2023-12-20T06:38:23;14.83;;;10.95;;
36253;SDS011;22291;52.250;21.228;2023-12-20T06:40:51;16.15;;;10.58;;
36253;SDS011;22291;52.250;21.228;2023-12-20T06:43:18;12.03;;;9.83;;
36253;SDS011;22291;52.250;21.228;2023-12-20T06:45:45;15.00;;;10.72;;
36253;SDS011;22291;52.250;21.228;2023-12-20T06:48:12;17.40;;;10.78;;
36253;SDS011;22291;52.250;21.228;2023-12-20T06:50:39;15.13;;;10.80;;
36253;SDS011;22291;52.250;21.228;2023-12-20T06:53:07;14.23;;;10.28;;
36253;SDS011;22291;52.250;21.228;2023-12-20T06:55:35;14.38;;;10.82;;
36253;SDS011;22291;52.250;21.228;2023-12-20T06:58:03;14.15;;;11.20;;
36253;SDS011;22291;52.250;21.228;2023-12-20T07:00:31;15.63;;;10.55;;
36253;SDS011;22291;52.250;21.228;2023-12-20T07:02:59;13.58;;;9.68;;
36253;SDS011;22291;52.250;21.228;2023-12-20T07:05:26;14.30;;;10.18;;
36253;SDS011;22291;52.250;21.228;2023-12-20T07:07:53;12.70;;;9.43;;
36253;SDS011;22291;52.250;21.228;2023-12-20T07:10:20;13.38;;;9.70;;
36253;SDS011;22291;52.250;21.228;2023-12-20T07:12:47;14.33;;;9.98;;
36253;SDS011;22291;52.250;21.228;2023-12-20T07:15:14;15.48;;;10.35;;
36253;SDS011;22291;52.250;21.228;2023-12-20T07:17:42;15.32;;;10.20;;
36253;SDS011;22291;52.250;21.228;2023-12-20T07:20:09;12.58;;;8.68;;
36253;SDS011;22291;52.250;21.228;2023-12-20T07:22:38;15.60;;;10.40;;
36253;SDS011;22291;52.250;21.228;2023-12-20T07:25:06;14.00;;;10.20;;
36253;SDS011;22291;52.250;21.228;2023-12-20T07:27:34;13.75;;;9.45;;
36253;SDS011;22291;52.250;21.228;2023-12-20T07:30:01;13.70;;;9.18;;
36253;SDS011;22291;52.250;21.228;2023-12-20T07:32:29;12.47;;;9.50;;
36253;SDS011;22291;52.250;21.228;2023-12-20T07:34:55;13.18;;;9.35;;
36253;SDS011;22291;52.250;21.228;2023-12-20T07:37:22;13.15;;;9.10;;
36253;SDS011;22291;52.250;21.228;2023-12-20T07:39:50;14.63;;;10.03;;
36253;SDS011;22291;52.250;21.228;2023-12-20T07:42:17;14.03;;;9.55;;
36253;SDS011;22291;52.250;21.228;2023-12-20T07:44:43;14.58;;;9.98;;
36253;SDS011;22291;52.250;21.228;2023-12-20T07:47:11;13.50;;;9.68;;
36253;SDS011;22291;52.250;21.228;2023-12-20T07:49:40;14.35;;;10.58;;
36253;SDS011;22291;52.250;21.228;2023-12-20T07:52:07;12.78;;;9.90;;
36253;SDS011;22291;52.250;21.228;2023-12-20T07:54:35;14.38;;;9.95;;
36253;SDS011;22291;52.250;21.228;2023-12-20T07:57:02;13.60;;;10.00;;
36253;SDS011;22291;52.250;21.228;2023-12-20T07:59:29;13.95;;;9.85;;
36253;SDS011;22291;52.250;21.228;2023-12-20T08:01:56;14.18;;;10.82;;
36253;SDS011;22291;52.250;21.228;2023-12-20T08:04:23;16.15;;;10.48;;
36253;SDS011;22291;52.250;21.228;2023-12-20T08:06:50;18.92;;;11.20;;
36253;SDS011;22291;52.250;21.228;2023-12-20T08:09:17;13.50;;;10.40;;
36253;SDS011;22291;52.250;21.228;2023-12-20T08:11:45;13.22;;;10.10;;
36253;SDS011;22291;52.250;21.228;2023-12-20T08:14:13;16.17;;;10.60;;
36253;SDS011;22291;52.250;21.228;2023-12-20T08:16:40;16.23;;;10.48;;
36253;SDS011;22291;52.250;21.228;2023-12-20T08:19:06;13.83;;;10.50;;
36253;SDS011;22291;52.250;21.228;2023-12-20T08:21:33;15.98;;;11.12;;
36253;SDS011;22291;52.250;21.228;2023-12-20T08:24:00;14.70;;;10.72;;
36253;SDS011;22291;52.250;21.228;2023-12-20T08:26:27;16.23;;;10.43;;
36253;SDS011;22291;52.250;21.228;2023-12-20T08:28:54;13.78;;;10.13;;
36253;SDS011;22291;52.250;21.228;2023-12-20T08:31:21;14.07;;;10.38;;
36253;SDS011;22291;52.250;21.228;2023-12-20T08:33:48;15.13;;;10.53;;
36253;SDS011;22291;52.250;21.228;2023-12-20T08:36:15;14.68;;;10.20;;
36253;SDS011;22291;52.250;21.228;2023-12-20T08:38:43;15.20;;;9.85;;
36253;SDS011;22291;52.250;21.228;2023-12-20T08:41:10;12.82;;;9.00;;
36253;SDS011;22291;52.250;21.228;2023-12-20T08:43:36;14.93;;;9.23;;
36253;SDS011;22291;52.250;21.228;2023-12-20T08:46:05;12.13;;;9.30;;
36253;SDS011;22291;52.250;21.228;2023-12-20T08:48:32;13.28;;;9.08;;
36253;SDS011;22291;52.250;21.228;2023-12-20T08:50:59;11.25;;;8.33;;
36253;SDS011;22291;52.250;21.228;2023-12-20T08:53:26;10.82;;;8.20;;
36253;SDS011;22291;52.250;21.228;2023-12-20T08:55:53;14.80;;;9.40;;
36253;SDS011;22291;52.250;21.228;2023-12-20T08:58:20;14.43;;;8.08;;
36253;SDS011;22291;52.250;21.228;2023-12-20T09:00:47;12.18;;;8.35;;
36253;SDS011;22291;52.250;21.228;2023-12-20T09:03:13;13.25;;;8.55;;
36253;SDS011;22291;52.250;21.228;2023-12-20T09:05:40;11.08;;;8.08;;
36253;SDS011;22291;52.250;21.228;2023-12-20T09:08:07;13.88;;;8.98;;
36253;SDS011;22291;52.250;21.228;2023-12-20T09:10:35;10.78;;;7.37;;
36253;SDS011;22291;52.250;21.228;2023-12-20T09:13:03;10.80;;;8.13;;
36253;SDS011;22291;52.250;21.228;2023-12-20T09:15:30;11.03;;;8.28;;
36253;SDS011;22291;52.250;21.228;2023-12-20T09:17:56;12.00;;;8.43;;
36253;SDS011;22291;52.250;21.228;2023-12-20T09:20:24;9.98;;;8.08;;
36253;SDS011;22291;52.250;21.228;2023-12-20T09:22:51;12.68;;;8.33;;
36253;SDS011;22291;52.250;21.228;2023-12-20T09:25:18;12.15;;;8.50;;
36253;SDS011;22291;52.250;21.228;2023-12-20T09:27:44;10.70;;;8.05;;
36253;SDS011;22291;52.250;21.228;2023-12-20T09:30:11;12.63;;;9.10;;
36253;SDS011;22291;52.250;21.228;2023-12-20T09:32:38;12.30;;;8.35;;
36253;SDS011;22291;52.250;21.228;2023-12-20T09:35:05;11.03;;;7.72;;
36253;SDS011;22291;52.250;21.228;2023-12-20T09:37:34;10.90;;;7.53;;
36253;SDS011;22291;52.250;21.228;2023-12-20T09:40:01;13.43;;;7.67;;
36253;SDS011;22291;52.250;21.228;2023-12-20T09:42:35;11.28;;;7.70;;
36253;SDS011;22291;52.250;21.228;2023-12-20T09:45:08;9.73;;;7.30;;
36253;SDS011;22291;52.250;21.228;2023-12-20T09:47:35;9.00;;;6.78;;
36253;SDS011;22291;52.250;21.228;2023-12-20T09:50:02;10.32;;;7.67;;
36253;SDS011;22291;52.250;21.228;2023-12-20T09:52:30;10.75;;;7.40;;
36253;SDS011;22291;52.250;21.228;2023-12-20T09:54:58;9.65;;;7.40;;
36253;SDS011;22291;52.250;21.228;2023-12-20T09:57:27;14.25;;;7.87;;
36253;SDS011;22291;52.250;21.228;2023-12-20T09:59:54;10.78;;;7.17;;
36253;SDS011;22291;52.250;21.228;2023-12-20T10:02:21;10.23;;;6.87;;
36253;SDS011;22291;52.250;21.228;2023-12-20T10:04:53;10.85;;;7.17;;
36253;SDS011;22291;52.250;21.228;2023-12-20T10:07:21;10.30;;;7.40;;
36253;SDS011;22291;52.250;21.228;2023-12-20T10:09:48;11.60;;;7.60;;
36253;SDS011;22291;52.250;21.228;2023-12-20T10:12:15;10.53;;;7.80;;
36253;SDS011;22291;52.250;21.228;2023-12-20T10:14:42;10.75;;;7.70;;
36253;SDS011;22291;52.250;21.228;2023-12-20T10:17:09;9.88;;;6.75;;
36253;SDS011;22291;52.250;21.228;2023-12-20T10:19:36;10.28;;;7.75;;
36253;SDS011;22291;52.250;21.228;2023-12-20T10:22:04;8.68;;;7.17;;
36253;SDS011;22291;52.250;21.228;2023-12-20T10:24:31;11.63;;;7.67;;
36253;SDS011;22291;52.250;21.228;2023-12-20T10:27:02;10.53;;;7.75;;
36253;SDS011;22291;52.250;21.228;2023-12-20T10:29:36;13.18;;;7.65;;
36253;SDS011;22291;52.250;21.228;2023-12-20T10:32:25;10.40;;;7.33;;
36253;SDS011;22291;52.250;21.228;2023-12-20T10:34:53;9.35;;;7.20;;
36253;SDS011;22291;52.250;21.228;2023-12-20T10:37:22;11.65;;;8.15;;
36253;SDS011;22291;52.250;21.228;2023-12-20T10:39:50;10.63;;;7.12;;
36253;SDS011;22291;52.250;21.228;2023-12-20T10:42:21;10.45;;;7.62;;
36253;SDS011;22291;52.250;21.228;2023-12-20T10:44:49;10.63;;;7.10;;
36253;SDS011;22291;52.250;21.228;2023-12-20T10:47:17;9.10;;;6.72;;
36253;SDS011;22291;52.250;21.228;2023-12-20T10:49:45;10.57;;;7.60;;
36253;SDS011;22291;52.250;21.228;2023-12-20T10:52:13;8.98;;;6.97;;
36253;SDS011;22291;52.250;21.228;2023-12-20T10:54:40;11.10;;;7.30;;
36253;SDS011;22291;52.250;21.228;2023-12-20T10:57:08;9.18;;;6.90;;
36253;SDS011;22291;52.250;21.228;2023-12-20T10:59:39;9.53;;;7.25;;
36253;SDS011;22291;52.250;21.228;2023-12-20T11:04:44;9.33;;;6.67;;
36253;SDS011;22291;52.250;21.228;2023-12-20T11:09:59;11.53;;;7.47;;
36253;SDS011;22291;52.250;21.228;2023-12-20T11:15:25;8.68;;;6.72;;
36253;SDS011;22291;52.250;21.228;2023-12-20T11:17:57;10.68;;;7.62;;
36253;SDS011;22291;52.250;21.228;2023-12-20T11:20:38;10.95;;;7.62;;
36253;SDS011;22291;52.250;21.228;2023-12-20T11:23:06;12.00;;;7.97;;
36253;SDS011;22291;52.250;21.228;2023-12-20T11:25:56;10.20;;;7.92;;
36253;SDS011;22291;52.250;21.228;2023-12-20T11:28:25;9.68;;;7.15;;
36253;SDS011;22291;52.250;21.228;2023-12-20T11:30:53;11.57;;;7.60;;
36253;SDS011;22291;52.250;21.228;2023-12-20T11:33:25;12.90;;;8.65;;
36253;SDS011;22291;52.250;21.228;2023-12-20T11:35:59;10.95;;;7.53;;
36253;SDS011;22291;52.250;21.228;2023-12-20T11:38:26;11.05;;;7.87;;
36253;SDS011;22291;52.250;21.228;2023-12-20T11:40:53;10.18;;;8.30;;
36253;SDS011;22291;52.250;21.228;2023-12-20T11:43:31;10.03;;;8.00;;
36253;SDS011;22291;52.250;21.228;2023-12-20T11:46:07;11.08;;;7.12;;
36253;SDS011;22291;52.250;21.228;2023-12-20T11:48:36;11.22;;;7.50;;
36253;SDS011;22291;52.250;21.228;2023-12-20T11:51:09;10.32;;;7.83;;
36253;SDS011;22291;52.250;21.228;2023-12-20T11:53:37;10.95;;;7.53;;
36253;SDS011;22291;52.250;21.228;2023-12-20T11:56:08;9.85;;;7.25;;
36253;SDS011;22291;52.250;21.228;2023-12-20T11:58:36;12.13;;;8.05;;
36253;SDS011;22291;52.250;21.228;2023-12-20T12:01:04;12.73;;;7.80;;
36253;SDS011;22291;52.250;21.228;2023-12-20T12:03:35;11.63;;;7.78;;
36253;SDS011;22291;52.250;21.228;2023-12-20T12:06:04;19.05;;;13.93;;
36253;SDS011;22291;52.250;21.228;2023-12-20T12:08:33;12.13;;;8.05;;
36253;SDS011;22291;52.250;21.228;2023-12-20T12:11:01;13.00;;;8.28;;
36253;SDS011;22291;52.250;21.228;2023-12-20T12:13:29;9.63;;;7.53;;
36253;SDS011;22291;52.250;21.228;2023-12-20T12:15:57;9.35;;;7.42;;
36253;SDS011;22291;52.250;21.228;2023-12-20T12:18:25;12.03;;;8.27;;
36253;SDS011;22291;52.250;21.228;2023-12-20T12:20:59;11.95;;;7.55;;
36253;SDS011;22291;52.250;21.228;2023-12-20T12:23:28;10.78;;;7.55;;
36253;SDS011;22291;52.250;21.228;2023-12-20T12:25:55;10.68;;;7.80;;
36253;SDS011;22291;52.250;21.228;2023-12-20T12:28:25;10.88;;;7.37;;
36253;SDS011;22291;52.250;21.228;2023-12-20T12:30:57;9.78;;;7.92;;
36253;SDS011;22291;52.250;21.228;2023-12-20T12:33:25;11.88;;;8.35;;
36253;SDS011;22291;52.250;21.228;2023-12-20T12:35:53;9.63;;;7.80;;
36253;SDS011;22291;52.250;21.228;2023-12-20T12:38:21;12.58;;;8.30;;
36253;SDS011;22291;52.250;21.228;2023-12-20T12:40:50;11.90;;;9.13;;
36253;SDS011;22291;52.250;21.228;2023-12-20T12:43:19;12.07;;;9.00;;
36253;SDS011;22291;52.250;21.228;2023-12-20T12:45:48;12.05;;;9.33;;
36253;SDS011;22291;52.250;21.228;2023-12-20T12:48:15;11.93;;;9.03;;
36253;SDS011;22291;52.250;21.228;2023-12-20T12:50:42;15.13;;;9.05;;
36253;SDS011;22291;52.250;21.228;2023-12-20T12:53:09;13.58;;;8.30;;
36253;SDS011;22291;52.250;21.228;2023-12-20T12:55:36;12.75;;;8.90;;
36253;SDS011;22291;52.250;21.228;2023-12-20T12:58:04;11.45;;;8.58;;
36253;SDS011;22291;52.250;21.228;2023-12-20T13:00:31;14.65;;;9.45;;
36253;SDS011;22291;52.250;21.228;2023-12-20T13:02:59;11.45;;;8.53;;
36253;SDS011;22291;52.250;21.228;2023-12-20T13:05:27;14.98;;;9.80;;
36253;SDS011;22291;52.250;21.228;2023-12-20T13:07:56;11.12;;;7.90;;
36253;SDS011;22291;52.250;21.228;2023-12-20T13:10:24;13.53;;;9.80;;
36253;SDS011;22291;52.250;21.228;2023-12-20T13:12:51;13.78;;;9.78;;
36253;SDS011;22291;52.250;21.228;2023-12-20T13:15:19;14.60;;;10.25;;
36253;SDS011;22291;52.250;21.228;2023-12-20T13:17:46;14.25;;;10.08;;
36253;SDS011;22291;52.250;21.228;2023-12-20T13:20:13;14.73;;;10.93;;
36253;SDS011;22291;52.250;21.228;2023-12-20T13:22:40;18.87;;;11.08;;
36253;SDS011;22291;52.250;21.228;2023-12-20T13:25:07;13.83;;;10.82;;
36253;SDS011;22291;52.250;21.228;2023-12-20T13:27:34;13.35;;;10.53;;
36253;SDS011;22291;52.250;21.228;2023-12-20T13:30:02;16.02;;;10.95;;
36253;SDS011;22291;52.250;21.228;2023-12-20T13:32:31;16.48;;;11.45;;
36253;SDS011;22291;52.250;21.228;2023-12-20T13:34:58;18.23;;;11.35;;
36253;SDS011;22291;52.250;21.228;2023-12-20T13:37:25;16.55;;;12.53;;
36253;SDS011;22291;52.250;21.228;2023-12-20T13:39:53;14.68;;;11.78;;
36253;SDS011;22291;52.250;21.228;2023-12-20T13:42:19;19.05;;;12.10;;
36253;SDS011;22291;52.250;21.228;2023-12-20T13:44:46;15.83;;;11.08;;
36253;SDS011;22291;52.250;21.228;2023-12-20T13:47:13;14.43;;;10.78;;
36253;SDS011;22291;52.250;21.228;2023-12-20T13:49:40;19.10;;;11.55;;
36253;SDS011;22291;52.250;21.228;2023-12-20T13:52:07;16.48;;;11.75;;
36253;SDS011;22291;52.250;21.228;2023-12-20T13:54:33;17.40;;;11.20;;
36253;SDS011;22291;52.250;21.228;2023-12-20T13:57:00;18.12;;;11.43;;
36253;SDS011;22291;52.250;21.228;2023-12-20T13:59:29;18.70;;;11.07;;
36253;SDS011;22291;52.250;21.228;2023-12-20T14:02:05;18.42;;;11.55;;
36253;SDS011;22291;52.250;21.228;2023-12-20T14:04:32;16.90;;;11.22;;
36253;SDS011;22291;52.250;21.228;2023-12-20T14:07:00;14.53;;;10.58;;
36253;SDS011;22291;52.250;21.228;2023-12-20T14:09:28;16.40;;;10.98;;
36253;SDS011;22291;52.250;21.228;2023-12-20T14:11:55;13.83;;;10.68;;
36253;SDS011;22291;52.250;21.228;2023-12-20T14:14:22;17.20;;;11.35;;
36253;SDS011;22291;52.250;21.228;2023-12-20T14:16:50;15.70;;;11.40;;
36253;SDS011;22291;52.250;21.228;2023-12-20T14:19:16;15.72;;;10.32;;
36253;SDS011;22291;52.250;21.228;2023-12-20T14:21:44;15.65;;;10.45;;
36253;SDS011;22291;52.250;21.228;2023-12-20T14:24:13;16.02;;;10.10;;
36253;SDS011;22291;52.250;21.228;2023-12-20T14:26:40;14.87;;;10.03;;
36253;SDS011;22291;52.250;21.228;2023-12-20T14:29:07;14.15;;;9.75;;